Time;durP1;ratioP1;P1;durP2;ratioP2;P2;SDS_P1;SDS_P2;PMS_P1;PMS_P2;Temp;Humidity;BMP_temperature;BMP_pressure;BME280_temperature;BME280_humidity;BME280_pressure;Samples;Min_cycle;Max_cycle;Signal;HPM_P1;HPM_P2
2022/09/12 00:00:47;;;;;;;0.50;0.50;;;15.10;99.90;;;;;;4998643;27;20071;-80
2022/09/12 00:03:13;;;;;;;0.50;0.50;;;15.10;99.90;;;;;;4994478;27;20803;-80
2022/09/12 00:05:46;;;;;;;0.50;0.50;;;15.00;99.90;;;;;;5000884;27;20051;-80
2022/09/12 00:08:13;;;;;;;0.50;0.50;;;14.90;99.90;;;;;;5038809;27;20042;-81
2022/09/12 00:10:40;;;;;;;0.50;0.50;;;15.00;99.90;;;;;;5018029;27;20201;-80
2022/09/12 00:13:07;;;;;;;0.50;0.50;;;15.10;99.90;;;;;;5029054;27;20547;-81
2022/09/12 00:15:41;;;;;;;0.50;0.50;;;15.10;99.90;;;;;;5033397;27;20142;-80
2022/09/12 00:18:14;;;;;;;0.50;0.50;;;15.10;99.90;;;;;;5026766;27;20049;-80
2022/09/12 00:20:42;;;;;;;0.50;0.50;;;15.10;99.90;;;;;;5011435;27;20250;-80
2022/09/12 00:23:11;;;;;;;0.52;0.52;;;15.00;99.90;;;;;;5030126;27;20583;-80
2022/09/12 00:25:42;;;;;;;0.50;0.50;;;14.90;99.90;;;;;;5013819;27;20273;-81
2022/09/12 00:28:08;;;;;;;0.50;0.50;;;14.90;99.90;;;;;;5028752;27;20262;-79
2022/09/12 00:30:33;;;;;;;0.50;0.50;;;14.80;99.90;;;;;;5032267;27;20424;-82
2022/09/12 00:32:59;;;;;;;0.50;0.50;;;14.90;99.90;;;;;;5010687;27;20556;-82
2022/09/12 00:35:25;;;;;;;0.50;0.50;;;14.90;99.90;;;;;;5014672;27;20787;-82
2022/09/12 00:37:51;;;;;;;0.50;0.50;;;15.00;99.90;;;;;;5010308;27;20039;-81
2022/09/12 00:40:17;;;;;;;0.52;0.52;;;15.00;99.90;;;;;;5015094;27;20626;-80
2022/09/12 00:42:43;;;;;;;0.50;0.50;;;14.90;99.90;;;;;;5036576;27;20135;-80
2022/09/12 00:45:22;;;;;;;0.43;0.43;;;14.90;99.90;;;;;;5027829;27;20138;-80
2022/09/12 00:47:48;;;;;;;0.40;0.40;;;14.90;99.90;;;;;;5027263;27;20062;-81
2022/09/12 00:50:16;;;;;;;0.50;0.50;;;15.00;99.90;;;;;;5008972;27;20365;-81
2022/09/12 00:52:59;;;;;;;0.50;0.50;;;14.90;99.90;;;;;;5025153;27;20341;-80
2022/09/12 00:55:32;;;;;;;0.50;0.50;;;14.80;99.90;;;;;;5016066;27;20054;-80
2022/09/12 00:58:00;;;;;;;0.50;0.50;;;14.80;99.90;;;;;;5006370;27;20566;-80
2022/09/12 01:00:27;;;;;;;0.50;0.50;;;14.80;99.90;;;;;;5009452;27;20332;-80
2022/09/12 01:02:59;;;;;;;0.50;0.50;;;14.70;99.90;;;;;;5006767;27;20373;-80
2022/09/12 01:05:26;;;;;;;0.50;0.50;;;14.80;99.90;;;;;;5027358;27;20043;-80
2022/09/12 01:07:53;;;;;;;0.50;0.50;;;14.70;99.90;;;;;;5031565;27;20062;-80
2022/09/12 01:10:20;;;;;;;0.50;0.50;;;14.70;99.90;;;;;;5026454;27;20053;-81
2022/09/12 01:12:46;;;;;;;0.50;0.50;;;14.60;99.90;;;;;;5029301;27;20115;-80
2022/09/12 01:15:13;;;;;;;0.50;0.50;;;14.60;99.90;;;;;;5028285;27;20046;-80
2022/09/12 01:17:57;;;;;;;0.50;0.50;;;14.60;99.90;;;;;;5032529;27;20534;-81
2022/09/12 01:20:48;;;;;;;0.50;0.50;;;14.60;99.90;;;;;;5025224;27;20947;-80
2022/09/12 01:23:32;;;;;;;0.50;0.50;;;14.60;99.90;;;;;;5024168;27;20431;-80
2022/09/12 01:26:32;;;;;;;0.50;0.50;;;14.50;99.90;;;;;;5019634;27;20692;-80
2022/09/12 01:29:13;;;;;;;0.50;0.50;;;14.60;99.90;;;;;;5028141;27;20047;-80
2022/09/12 01:31:52;;;;;;;0.50;0.50;;;14.40;99.90;;;;;;5013053;27;20996;-80
2022/09/12 01:34:30;;;;;;;0.50;0.50;;;14.30;99.90;;;;;;5022734;27;20139;-81
2022/09/12 01:37:15;;;;;;;0.50;0.50;;;14.30;99.90;;;;;;5024212;27;20441;-80
2022/09/12 01:40:09;;;;;;;0.50;0.50;;;14.30;99.90;;;;;;5013781;28;20049;-81
2022/09/12 01:42:43;;;;;;;;;;;14.40;99.90;;;;;;5028951;27;21308;-81
2022/09/12 01:45:38;;;;;;;0.50;0.50;;;14.30;99.90;;;;;;5020138;27;20437;-81
2022/09/12 01:48:10;;;;;;;0.50;0.50;;;14.10;99.90;;;;;;5013790;28;20125;-80
2022/09/12 01:50:43;;;;;;;0.50;0.50;;;14.10;99.90;;;;;;5009010;28;20050;-80
2022/09/12 01:53:24;;;;;;;0.50;0.50;;;14.10;99.90;;;;;;5028796;28;20736;-80
2022/09/12 01:56:30;;;;;;;0.50;0.50;;;14.10;99.90;;;;;;5015823;28;20044;-80
2022/09/12 01:59:15;;;;;;;0.50;0.50;;;14.00;99.90;;;;;;4950751;28;20176;-80
2022/09/12 02:01:51;;;;;;;0.50;0.50;;;13.90;99.90;;;;;;4954122;28;20098;-80
2022/09/12 02:04:23;;;;;;;0.50;0.50;;;13.80;99.90;;;;;;4999403;28;21145;-80
2022/09/12 02:06:56;;;;;;;0.50;0.50;;;14.00;99.90;;;;;;5018421;28;20134;-80
2022/09/12 02:09:28;;;;;;;0.50;0.50;;;13.90;99.90;;;;;;5028306;28;20049;-80
2022/09/12 02:11:58;;;;;;;0.50;0.50;;;14.00;99.90;;;;;;5024110;28;20058;-80
2022/09/12 02:14:33;;;;;;;0.50;0.50;;;14.00;99.90;;;;;;5004614;28;20508;-80
2022/09/12 02:17:17;;;;;;;0.50;0.50;;;13.90;99.90;;;;;;5032067;28;20049;-80
2022/09/12 02:19:45;;;;;;;;;;;13.80;99.90;;;;;;5034792;28;20447;-80
2022/09/12 02:22:16;;;;;;;0.50;0.50;;;13.80;99.90;;;;;;5027034;28;19923;-81
2022/09/12 02:24:45;;;;;;;0.47;0.47;;;13.90;99.90;;;;;;5027701;28;20054;-81
2022/09/12 02:27:15;;;;;;;0.50;0.50;;;14.00;99.90;;;;;;5015255;28;20046;-80
2022/09/12 02:29:43;;;;;;;0.50;0.50;;;13.90;99.90;;;;;;5006705;28;20822;-81
2022/09/12 02:32:41;;;;;;;0.50;0.50;;;13.80;99.90;;;;;;5029555;28;20035;-80
2022/09/12 02:35:20;;;;;;;0.50;0.50;;;13.70;99.90;;;;;;5033720;28;20036;-80
2022/09/12 02:38:01;;;;;;;0.50;0.50;;;13.60;99.90;;;;;;5028244;28;20058;-80
2022/09/12 02:40:28;;;;;;;0.43;0.43;;;13.60;99.90;;;;;;5013814;28;20405;-80
2022/09/12 02:42:54;;;;;;;0.40;0.40;;;13.50;99.90;;;;;;5032095;27;20055;-80
2022/09/12 02:45:22;;;;;;;0.50;0.50;;;13.50;99.90;;;;;;5032598;28;20386;-80
2022/09/12 02:48:11;;;;;;;0.50;0.50;;;13.60;99.90;;;;;;5012470;27;20949;-80
2022/09/12 02:50:37;;;;;;;0.50;0.50;;;13.60;99.90;;;;;;5029694;27;21084;-80
2022/09/12 02:53:04;;;;;;;0.50;0.50;;;13.70;99.90;;;;;;5021476;27;20036;-80
2022/09/12 02:55:32;;;;;;;0.40;0.40;;;13.70;99.90;;;;;;5034990;27;20109;-80
2022/09/12 02:58:00;;;;;;;0.40;0.40;;;13.60;99.90;;;;;;5027682;27;20108;-80
2022/09/12 03:00:29;;;;;;;0.50;0.50;;;13.40;99.90;;;;;;5038535;27;20035;-80
2022/09/12 03:03:25;;;;;;;0.50;0.50;;;13.50;99.90;;;;;;5017395;27;22259;-80
2022/09/12 03:05:59;;;;;;;0.50;0.50;;;13.60;99.90;;;;;;5028506;27;20119;-81
2022/09/12 03:09:00;;;;;;;0.50;0.50;;;13.60;99.90;;;;;;5014234;27;20427;-80
2022/09/12 03:11:57;;;;;;;0.50;0.50;;;13.60;99.90;;;;;;5035226;27;20530;-81
2022/09/12 03:14:51;;;;;;;0.50;0.50;;;13.60;99.90;;;;;;5016983;27;20067;-81
2022/09/12 03:17:47;;;;;;;0.50;0.50;;;13.50;99.90;;;;;;5038918;27;20075;-81
2022/09/12 03:20:15;;;;;;;0.50;0.50;;;13.30;99.90;;;;;;5030788;27;20463;-81
2022/09/12 03:22:52;;;;;;;0.50;0.50;;;13.30;99.90;;;;;;5008527;27;20049;-80
2022/09/12 03:25:34;;;;;;;0.50;0.50;;;13.20;99.90;;;;;;5015716;27;20074;-80
2022/09/12 03:28:07;;;;;;;0.50;0.50;;;13.20;99.90;;;;;;5035051;27;20047;-81
2022/09/12 03:30:44;;;;;;;0.50;0.50;;;13.30;99.90;;;;;;5017475;27;20291;-81
2022/09/12 03:33:11;;;;;;;0.50;0.50;;;13.20;99.90;;;;;;5009848;27;20051;-81
2022/09/12 03:35:37;;;;;;;0.50;0.50;;;13.20;99.90;;;;;;5036550;27;20206;-80
2022/09/12 03:38:04;;;;;;;0.50;0.50;;;13.10;99.90;;;;;;5029533;27;20075;-80
2022/09/12 03:40:29;;;;;;;0.50;0.50;;;13.00;99.90;;;;;;5033688;27;20066;-81
2022/09/12 03:42:55;;;;;;;0.50;0.50;;;13.10;99.90;;;;;;5031627;27;20065;-80
2022/09/12 03:45:21;;;;;;;0.50;0.50;;;13.10;99.90;;;;;;5013126;27;20039;-81
2022/09/12 03:47:47;;;;;;;0.50;0.50;;;13.10;99.90;;;;;;5023498;27;20081;-80
2022/09/12 03:50:13;;;;;;;0.50;0.50;;;13.10;99.90;;;;;;5014229;27;20139;-80
2022/09/12 03:52:38;;;;;;;0.50;0.50;;;13.20;99.90;;;;;;4996834;27;20093;-81
2022/09/12 03:55:05;;;;;;;0.50;0.50;;;13.10;99.90;;;;;;5029019;27;20027;-80
2022/09/12 03:57:31;;;;;;;0.50;0.50;;;13.10;99.90;;;;;;5040926;27;21166;-80
2022/09/12 03:59:56;;;;;;;0.50;0.50;;;13.00;99.90;;;;;;5033273;27;20043;-81
2022/09/12 04:02:22;;;;;;;0.50;0.50;;;13.00;99.90;;;;;;5039318;27;20046;-81
2022/09/12 04:04:49;;;;;;;0.50;0.50;;;12.90;99.90;;;;;;5037776;27;20884;-81
2022/09/12 04:07:16;;;;;;;0.40;0.40;;;12.90;99.90;;;;;;5027148;27;20374;-81
2022/09/12 04:09:41;;;;;;;0.50;0.50;;;13.00;99.90;;;;;;5019131;27;20047;-81
2022/09/12 04:12:07;;;;;;;0.50;0.50;;;13.10;99.90;;;;;;5033993;27;20356;-81
2022/09/12 04:14:33;;;;;;;0.50;0.50;;;13.20;99.90;;;;;;5018343;27;20107;-81
2022/09/12 04:17:00;;;;;;;0.60;0.60;;;13.10;99.90;;;;;;5019067;27;20059;-80
2022/09/12 04:19:26;;;;;;;0.50;0.50;;;13.30;99.90;;;;;;5013516;27;20050;-81
2022/09/12 04:21:52;;;;;;;0.50;0.50;;;13.30;99.90;;;;;;5030127;27;20039;-81
2022/09/12 04:24:18;;;;;;;0.50;0.50;;;13.20;99.90;;;;;;5021056;27;20353;-81
2022/09/12 04:26:43;;;;;;;0.45;0.45;;;13.30;99.90;;;;;;5016417;27;20100;-81
2022/09/12 04:29:13;;;;;;;0.50;0.50;;;13.20;99.90;;;;;;5011156;27;20070;-81
2022/09/12 04:31:40;;;;;;;0.40;0.40;;;13.20;99.90;;;;;;5034918;27;20519;-81
2022/09/12 04:34:06;;;;;;;0.50;0.50;;;13.00;99.90;;;;;;5034368;27;20444;-81
2022/09/12 04:36:33;;;;;;;0.40;0.40;;;12.90;99.90;;;;;;4997951;27;20053;-81
2022/09/12 04:39:00;;;;;;;0.50;0.50;;;12.80;99.90;;;;;;5013938;27;20047;-81
2022/09/12 04:41:29;;;;;;;0.40;0.40;;;12.80;99.90;;;;;;5036357;27;20070;-81
2022/09/12 04:43:58;;;;;;;0.70;0.70;;;12.70;99.90;;;;;;5031297;27;20051;-81
2022/09/12 04:46:24;;;;;;;0.50;0.50;;;12.70;99.90;;;;;;5012458;27;20050;-81
2022/09/12 04:48:50;;;;;;;0.50;0.50;;;12.70;99.90;;;;;;5010101;27;20489;-81
2022/09/12 04:51:28;;;;;;;0.40;0.40;;;12.70;99.90;;;;;;5016666;27;20404;-81
2022/09/12 04:53:58;;;;;;;0.40;0.40;;;12.70;99.90;;;;;;5018446;27;20039;-80
2022/09/12 04:56:25;;;;;;;0.50;0.50;;;12.60;99.90;;;;;;5018541;27;20044;-81
2022/09/12 04:58:51;;;;;;;4.30;3.70;;;12.70;99.90;;;;;;5039226;27;20514;-81
2022/09/12 05:01:20;;;;;;;0.40;0.40;;;12.60;99.90;;;;;;5022172;27;20875;-81
2022/09/12 05:03:47;;;;;;;0.40;0.40;;;12.50;99.90;;;;;;5015139;27;20655;-81
2022/09/12 05:06:22;;;;;;;0.40;0.40;;;12.50;99.90;;;;;;5018133;27;20058;-81
2022/09/12 05:08:49;;;;;;;0.50;0.50;;;12.50;99.90;;;;;;5021857;27;20046;-81
2022/09/12 05:11:18;;;;;;;0.40;0.40;;;12.50;99.90;;;;;;5018354;28;20046;-81
2022/09/12 05:13:44;;;;;;;0.50;0.50;;;12.50;99.90;;;;;;5038653;27;20055;-81
2022/09/12 05:16:11;;;;;;;0.40;0.40;;;12.50;99.90;;;;;;4975031;27;20043;-81
2022/09/12 05:18:37;;;;;;;0.40;0.40;;;12.50;99.90;;;;;;5026939;27;20047;-81
2022/09/12 05:21:06;;;;;;;0.43;0.43;;;12.60;99.90;;;;;;5029603;27;20054;-81
2022/09/12 05:23:32;;;;;;;0.40;0.40;;;12.60;99.90;;;;;;5039481;27;20976;-81
2022/09/12 05:25:59;;;;;;;0.50;0.50;;;12.70;99.90;;;;;;5015275;27;20055;-82
2022/09/12 05:28:29;;;;;;;0.40;0.40;;;12.80;99.90;;;;;;5016497;27;20511;-81
2022/09/12 05:31:05;;;;;;;0.50;0.50;;;12.70;99.90;;;;;;5017307;27;20047;-82
2022/09/12 05:33:32;;;;;;;0.50;0.50;;;12.80;99.90;;;;;;5019761;27;20384;-81
2022/09/12 05:35:59;;;;;;;0.50;0.50;;;12.90;99.90;;;;;;5023951;27;20166;-81
2022/09/12 05:38:25;;;;;;;0.50;0.50;;;13.20;99.90;;;;;;5019157;27;20450;-81
2022/09/12 05:40:51;;;;;;;0.50;0.50;;;13.50;99.90;;;;;;5019037;27;20055;-81
2022/09/12 05:43:19;;;;;;;0.50;0.50;;;13.90;99.90;;;;;;5013624;28;20053;-79
2022/09/12 05:45:45;;;;;;;0.50;0.50;;;14.20;99.90;;;;;;5002600;27;20051;-81
2022/09/12 05:48:11;;;;;;;0.50;0.50;;;14.30;99.90;;;;;;5009658;28;20047;-81
2022/09/12 05:50:36;;;;;;;0.50;0.50;;;14.10;99.90;;;;;;5010397;28;20623;-81
2022/09/12 05:53:02;;;;;;;0.50;0.50;;;14.10;99.90;;;;;;5013315;28;20071;-81
2022/09/12 05:55:29;;;;;;;0.50;0.50;;;14.20;99.90;;;;;;5005187;28;20067;-82
2022/09/12 05:57:55;;;;;;;0.50;0.50;;;14.20;99.90;;;;;;5008271;28;20043;-81
2022/09/12 06:00:26;;;;;;;0.50;0.50;;;14.30;99.90;;;;;;5036002;28;20522;-80
2022/09/12 06:02:52;;;;;;;0.50;0.50;;;14.40;99.90;;;;;;5020627;28;20445;-81
2022/09/12 06:05:18;;;;;;;0.50;0.50;;;14.40;99.90;;;;;;5012823;28;20053;-79
2022/09/12 06:07:46;;;;;;;0.50;0.50;;;14.60;99.90;;;;;;5030964;28;20949;-81
2022/09/12 06:10:12;;;;;;;0.50;0.50;;;14.60;99.90;;;;;;5014706;28;20055;-82
2022/09/12 06:12:37;;;;;;;0.50;0.50;;;14.70;99.90;;;;;;5025242;28;20558;-80
2022/09/12 06:15:04;;;;;;;0.50;0.50;;;14.60;99.90;;;;;;5025242;28;20123;-79
2022/09/12 06:17:30;;;;;;;0.50;0.50;;;14.60;99.90;;;;;;5036916;28;20047;-80
2022/09/12 06:19:55;;;;;;;0.50;0.50;;;14.60;99.90;;;;;;5014881;28;20047;-82
2022/09/12 06:22:21;;;;;;;0.50;0.50;;;14.60;99.90;;;;;;5022950;27;20412;-81
2022/09/12 06:24:47;;;;;;;0.47;0.47;;;14.60;99.90;;;;;;5036872;27;20052;-81
2022/09/12 06:27:13;;;;;;;0.40;0.40;;;14.70;99.90;;;;;;5030702;27;20492;-81
2022/09/12 06:29:38;;;;;;;0.40;0.40;;;14.70;99.90;;;;;;5033102;27;21140;-81
2022/09/12 06:32:04;;;;;;;0.40;0.40;;;14.70;99.90;;;;;;5015270;27;20043;-81
2022/09/12 06:34:30;;;;;;;0.50;0.50;;;14.70;99.90;;;;;;5020553;27;20059;-80
2022/09/12 06:36:56;;;;;;;0.50;0.50;;;14.80;99.90;;;;;;5014453;27;20051;-81
2022/09/12 06:39:23;;;;;;;0.43;0.43;;;14.80;99.90;;;;;;5023704;27;20043;-81
2022/09/12 06:41:50;;;;;;;0.50;0.50;;;14.90;99.90;;;;;;5034761;27;20054;-82
2022/09/12 06:44:19;;;;;;;0.50;0.50;;;15.00;99.90;;;;;;5037236;27;20242;-80
2022/09/12 06:46:44;;;;;;;0.50;0.50;;;15.00;99.90;;;;;;5036690;27;20577;-82
2022/09/12 06:49:11;;;;;;;0.40;0.40;;;15.00;99.90;;;;;;5019824;27;20296;-81
2022/09/12 06:51:36;;;;;;;0.50;0.50;;;15.00;99.90;;;;;;5011139;27;20050;-82
2022/09/12 06:54:04;;;;;;;0.43;0.43;;;15.00;99.90;;;;;;5014674;27;20533;-79
2022/09/12 06:56:30;;;;;;;0.40;0.40;;;15.00;99.90;;;;;;5034945;27;20357;-82
2022/09/12 06:58:57;;;;;;;0.50;0.50;;;15.10;99.90;;;;;;5018810;27;20119;-81
2022/09/12 07:01:29;;;;;;;0.50;0.50;;;15.10;99.90;;;;;;5040090;27;21322;-81
2022/09/12 07:04:00;;;;;;;0.50;0.50;;;15.20;99.90;;;;;;5036898;27;20494;-80
2022/09/12 07:06:30;;;;;;;0.40;0.40;;;15.30;99.90;;;;;;5021647;27;20475;-80
2022/09/12 07:09:01;;;;;;;0.45;0.45;;;15.30;99.90;;;;;;5008498;27;20071;-81
2022/09/12 07:11:30;;;;;;;0.50;0.50;;;15.40;99.90;;;;;;4998922;27;20573;-82
2022/09/12 07:13:59;;;;;;;0.50;0.50;;;15.40;99.90;;;;;;5000932;27;20071;-81
2022/09/12 07:16:24;;;;;;;0.50;0.50;;;15.50;99.90;;;;;;5018532;27;20043;-81
2022/09/12 07:18:53;;;;;;;0.43;0.43;;;15.60;99.90;;;;;;5035290;27;20437;-81
2022/09/12 07:21:19;;;;;;;0.50;0.50;;;15.60;99.90;;;;;;5014151;27;20206;-80
2022/09/12 07:23:45;;;;;;;0.45;0.45;;;15.70;99.90;;;;;;5013627;27;20054;-81
2022/09/12 07:26:13;;;;;;;0.50;0.50;;;15.80;99.90;;;;;;5033371;27;20135;-81
2022/09/12 07:28:39;;;;;;;0.50;0.50;;;15.80;99.90;;;;;;5033979;27;20047;-81
2022/09/12 07:31:13;;;;;;;0.40;0.40;;;15.90;99.90;;;;;;5014471;27;20043;-82
2022/09/12 07:33:40;;;;;;;0.50;0.50;;;16.00;99.90;;;;;;5020466;27;20180;-81
2022/09/12 07:36:10;;;;;;;0.40;0.40;;;16.10;99.90;;;;;;5011700;27;20043;-81
2022/09/12 07:38:37;;;;;;;0.40;0.40;;;16.10;99.90;;;;;;5017983;27;20047;-82
2022/09/12 07:41:20;;;;;;;0.40;0.40;;;16.10;99.90;;;;;;5012807;27;21036;-82
2022/09/12 07:43:47;;;;;;;0.40;0.40;;;16.10;99.90;;;;;;5012552;27;20059;-83
2022/09/12 07:46:13;;;;;;;0.40;0.40;;;16.10;99.90;;;;;;5013987;27;20523;-81
2022/09/12 07:48:39;;;;;;;0.40;0.40;;;16.20;99.90;;;;;;5019276;27;20074;-82
2022/09/12 07:51:10;;;;;;;0.40;0.40;;;16.30;99.90;;;;;;5018359;27;20574;-81
2022/09/12 07:53:38;;;;;;;0.40;0.40;;;16.30;99.90;;;;;;5017943;27;20047;-81
2022/09/12 07:56:05;;;;;;;0.40;0.40;;;16.30;99.90;;;;;;5033028;27;20062;-83
2022/09/12 07:58:33;;;;;;;0.40;0.40;;;16.40;99.90;;;;;;5012917;27;20047;-83
2022/09/12 08:01:03;;;;;;;0.40;0.40;;;16.50;99.90;;;;;;5016552;27;20046;-81
2022/09/12 08:03:29;;;;;;;0.40;0.40;;;16.60;99.90;;;;;;5035162;27;20798;-82
2022/09/12 08:06:02;;;;;;;0.40;0.40;;;16.70;99.90;;;;;;5012497;27;20178;-82
2022/09/12 08:08:28;;;;;;;0.40;0.40;;;16.80;99.90;;;;;;5004530;27;20039;-83
2022/09/12 08:10:59;;;;;;;0.40;0.40;;;17.00;99.90;;;;;;5010417;27;20066;-82
2022/09/12 08:13:26;;;;;;;0.40;0.40;;;17.20;99.90;;;;;;5034906;27;20035;-82
2022/09/12 08:15:59;;;;;;;0.40;0.40;;;17.30;99.90;;;;;;5017260;27;20730;-83
2022/09/12 08:18:31;;;;;;;0.40;0.40;;;17.20;99.90;;;;;;5015953;27;20087;-81
2022/09/12 08:21:02;;;;;;;0.40;0.40;;;17.30;99.90;;;;;;5010875;27;20049;-82
2022/09/12 08:23:29;;;;;;;0.40;0.40;;;17.40;99.90;;;;;;5015485;27;20047;-81
2022/09/12 08:26:00;;;;;;;0.40;0.40;;;17.20;99.90;;;;;;5014440;27;20055;-81
2022/09/12 08:28:26;;;;;;;0.40;0.40;;;17.20;99.90;;;;;;5024855;27;20441;-83
2022/09/12 08:30:53;;;;;;;0.40;0.40;;;17.10;99.90;;;;;;5016434;27;20135;-82
2022/09/12 08:33:19;;;;;;;0.40;0.40;;;17.20;99.90;;;;;;5036604;27;20035;-82
2022/09/12 08:35:46;;;;;;;0.40;0.40;;;17.20;99.90;;;;;;4998329;27;20039;-82
2022/09/12 08:38:11;;;;;;;0.40;0.40;;;17.20;99.90;;;;;;5016245;27;20095;-80
2022/09/12 08:41:02;;;;;;;0.40;0.40;;;17.30;99.90;;;;;;5004620;27;20884;-82
2022/09/12 08:43:56;;;;;;;0.43;0.43;;;17.40;99.90;;;;;;4979626;27;20482;-81
2022/09/12 08:46:31;;;;;;;0.40;0.40;;;17.40;99.90;;;;;;5024098;27;20059;-81
2022/09/12 08:49:00;;;;;;;0.40;0.40;;;17.50;99.90;;;;;;5033536;27;20039;-82
2022/09/12 08:51:28;;;;;;;0.40;0.40;;;17.60;99.90;;;;;;5012190;27;20825;-85
2022/09/12 08:53:56;;;;;;;0.40;0.40;;;17.70;99.90;;;;;;5015765;27;20054;-83
2022/09/12 08:56:23;;;;;;;0.40;0.40;;;17.70;99.90;;;;;;5041213;27;20074;-82
2022/09/12 08:58:49;;;;;;;0.40;0.40;;;17.80;99.90;;;;;;5014519;27;20058;-82
2022/09/12 09:01:18;;;;;;;0.40;0.40;;;17.90;99.90;;;;;;4997531;27;20051;-81
2022/09/12 09:04:05;;;;;;;0.38;0.38;;;18.00;99.90;;;;;;5020521;27;20393;-81
2022/09/12 09:07:17;;;;;;;0.40;0.40;;;18.10;99.90;;;;;;5011811;27;20039;-82
2022/09/12 09:10:18;;;;;;;0.40;0.40;;;18.40;99.90;;;;;;5018700;27;20541;-82
2022/09/12 09:12:56;;;;;;;0.40;0.40;;;18.50;99.90;;;;;;4984550;27;20059;-82
2022/09/12 09:15:37;;;;;;;0.40;0.40;;;18.70;99.90;;;;;;5015645;27;20129;-82
2022/09/12 09:18:31;;;;;;;0.40;0.40;;;18.80;99.90;;;;;;5017792;27;20047;-83
2022/09/12 09:21:09;;;;;;;;;;;19.20;99.90;;;;;;5013390;27;20054;-82
2022/09/12 09:23:41;;;;;;;0.40;0.40;;;19.60;99.90;;;;;;5029730;27;19998;-82
2022/09/12 09:26:31;;;;;;;0.40;0.40;;;19.70;99.90;;;;;;5037300;27;20910;-83
2022/09/12 09:29:06;;;;;;;0.40;0.40;;;20.10;99.90;;;;;;5012724;27;20051;-82
2022/09/12 09:31:38;;;;;;;0.40;0.40;;;20.70;99.90;;;;;;5001541;27;21017;-81
2022/09/12 09:34:23;;;;;;;0.30;0.30;;;20.60;99.90;;;;;;5017347;27;20058;-81
2022/09/12 09:37:26;;;;;;;0.40;0.40;;;20.90;99.90;;;;;;5016987;27;20058;-81
2022/09/12 09:39:58;;;;;;;0.40;0.40;;;20.90;99.90;;;;;;5037515;27;20979;-83
2022/09/12 09:42:39;;;;;;;0.40;0.40;;;21.00;99.90;;;;;;5012144;27;20112;-82
2022/09/12 09:45:15;;;;;;;0.32;0.32;;;21.10;99.90;;;;;;5020219;28;20571;-81
2022/09/12 09:47:45;;;;;;;0.30;0.30;;;21.00;99.90;;;;;;5013442;27;20050;-82
2022/09/12 09:50:15;;;;;;;0.30;0.30;;;21.10;99.90;;;;;;5010076;27;20179;-83
2022/09/12 09:52:42;;;;;;;0.30;0.30;;;20.90;99.90;;;;;;5015271;28;20154;-84
2022/09/12 09:55:16;;;;;;;0.40;0.40;;;21.00;99.90;;;;;;4997965;28;20082;-84
2022/09/12 09:57:45;;;;;;;0.30;0.30;;;21.00;99.90;;;;;;5012081;27;20073;-82
2022/09/12 10:00:31;;;;;;;0.30;0.30;;;21.20;99.90;;;;;;5019261;27;20531;-82
2022/09/12 10:03:11;;;;;;;0.40;0.40;;;21.60;99.90;;;;;;5040958;27;20234;-83
2022/09/12 10:05:51;;;;;;;0.30;0.30;;;21.90;99.90;;;;;;5017551;27;20548;-82
2022/09/12 10:08:29;;;;;;;0.85;0.50;;;22.30;99.90;;;;;;5015610;27;20416;-82
2022/09/12 10:10:58;;;;;;;0.32;0.32;;;22.50;99.90;;;;;;5020668;27;20064;-82
2022/09/12 10:13:31;;;;;;;0.40;0.40;;;22.50;99.90;;;;;;5001225;27;20214;-82
2022/09/12 10:16:02;;;;;;;0.30;0.30;;;22.80;99.90;;;;;;5023696;27;20127;-83
2022/09/12 10:18:41;;;;;;;0.30;0.30;;;22.90;99.90;;;;;;5043354;27;20489;-82
2022/09/12 10:21:30;;;;;;;0.40;0.40;;;23.00;99.90;;;;;;5024110;27;20073;-84
2022/09/12 10:24:02;;;;;;;0.30;0.30;;;22.90;99.90;;;;;;5022196;27;20782;-84
2022/09/12 10:26:33;;;;;;;0.40;0.40;;;23.00;99.90;;;;;;5022849;27;20074;-80
2022/09/12 10:29:05;;;;;;;0.50;0.50;;;22.70;99.90;;;;;;5044008;27;20077;-83
2022/09/12 10:31:52;;;;;;;0.30;0.30;;;23.00;99.90;;;;;;5025570;27;20052;-82
2022/09/12 10:34:34;;;;;;;0.43;0.35;;;23.40;99.90;;;;;;5019233;27;20043;-83
2022/09/12 10:37:18;;;;;;;0.30;0.30;;;23.60;99.90;;;;;;5024863;27;20051;-83
2022/09/12 10:39:52;;;;;;;0.30;0.30;;;23.40;99.90;;;;;;5041761;27;20905;-85
2022/09/12 10:42:46;;;;;;;0.30;0.30;;;23.30;99.90;;;;;;5041810;27;20438;-83
2022/09/12 10:45:34;;;;;;;0.32;0.32;;;23.70;99.90;;;;;;5048276;27;20043;-83
2022/09/12 10:48:22;;;;;;;0.30;0.30;;;23.80;99.90;;;;;;5029588;27;21006;-82
2022/09/12 10:50:48;;;;;;;0.30;0.30;;;23.80;99.90;;;;;;5041112;27;20594;-84
2022/09/12 10:53:22;;;;;;;0.30;0.30;;;23.80;99.90;;;;;;5027472;27;20040;-83
2022/09/12 10:56:02;;;;;;;0.30;0.30;;;24.10;99.90;;;;;;5041285;27;20551;-85
2022/09/12 10:58:43;;;;;;;0.30;0.30;;;23.60;99.90;;;;;;5037206;27;20780;-83
2022/09/12 11:01:37;;;;;;;0.30;0.30;;;24.10;99.90;;;;;;5042586;27;20050;-83
2022/09/12 11:04:27;;;;;;;0.30;0.30;;;24.10;99.90;;;;;;5021806;27;20449;-82
2022/09/12 11:07:22;;;;;;;0.30;0.30;;;24.60;99.90;;;;;;5024922;27;20547;-82
2022/09/12 11:09:54;;;;;;;0.50;0.50;;;24.90;99.90;;;;;;5018212;27;20051;-85
2022/09/12 11:12:26;;;;;;;0.25;0.25;;;25.20;99.90;;;;;;5025113;27;20047;-82
2022/09/12 11:15:16;;;;;;;0.30;0.30;;;25.20;99.90;;;;;;5039866;27;20043;-82
2022/09/12 11:17:48;;;;;;;0.30;0.30;;;25.20;99.90;;;;;;5023304;27;20058;-84
2022/09/12 11:20:24;;;;;;;0.40;0.40;;;25.30;99.90;;;;;;5019676;27;20127;-82
2022/09/12 11:23:16;;;;;;;0.30;0.30;;;25.00;99.90;;;;;;5021799;27;20180;-81
2022/09/12 11:25:54;;;;;;;0.30;0.30;;;24.80;99.90;;;;;;5037556;27;20043;-82
2022/09/12 11:28:48;;;;;;;0.40;0.40;;;24.80;99.90;;;;;;5001564;27;20625;-84
2022/09/12 11:31:17;;;;;;;0.30;0.30;;;25.20;99.90;;;;;;5007472;27;20403;-86
2022/09/12 11:33:51;;;;;;;0.30;0.30;;;25.40;99.90;;;;;;5012576;27;20044;-82
2022/09/12 11:37:03;;;;;;;0.30;0.30;;;25.50;99.90;;;;;;5022493;27;20532;-81
2022/09/12 11:39:42;;;;;;;0.30;0.30;;;25.70;99.90;;;;;;5029273;27;20075;-85
2022/09/12 11:42:25;;;;;;;0.30;0.30;;;25.50;99.90;;;;;;5045697;27;20130;-86
2022/09/12 11:45:03;;;;;;;0.30;0.30;;;25.90;99.90;;;;;;5025023;27;20780;-83
2022/09/12 11:47:33;;;;;;;0.30;0.30;;;25.70;99.90;;;;;;5016846;27;20043;-84
2022/09/12 11:50:03;;;;;;;0.30;0.30;;;25.60;99.90;;;;;;5021748;27;20047;-86
2022/09/12 11:52:35;;;;;;;0.30;0.30;;;25.70;99.90;;;;;;5019251;27;20538;-83
2022/09/12 11:55:24;;;;;;;0.30;0.30;;;25.70;99.90;;;;;;5022033;27;20070;-83
2022/09/12 11:57:57;;;;;;;0.30;0.30;;;25.60;99.90;;;;;;5023276;27;20058;-83
2022/09/12 12:00:31;;;;;;;0.30;0.30;;;25.30;99.90;;;;;;5015730;27;20043;-82
2022/09/12 12:03:31;;;;;;;0.30;0.30;;;25.00;99.90;;;;;;5004997;27;20051;-83
2022/09/12 12:06:05;;;;;;;0.30;0.30;;;24.80;99.90;;;;;;5017072;27;20792;-82
2022/09/12 12:08:38;;;;;;;0.30;0.30;;;25.10;99.90;;;;;;5002341;27;20043;-82
2022/09/12 12:11:06;;;;;;;0.30;0.30;;;25.30;99.90;;;;;;5038521;27;20039;-82
2022/09/12 12:14:05;;;;;;;0.30;0.30;;;26.00;99.90;;;;;;5040345;27;20392;-85
2022/09/12 12:16:37;;;;;;;0.30;0.30;;;26.10;99.90;;;;;;5016594;27;20043;-81
2022/09/12 12:19:15;;;;;;;0.30;0.30;;;25.90;99.90;;;;;;5018294;27;20039;-82
2022/09/12 12:21:46;;;;;;;0.30;0.30;;;26.00;99.90;;;;;;5022380;27;20042;-82
2022/09/12 12:24:17;;;;;;;0.30;0.30;;;25.90;99.90;;;;;;5019761;27;20055;-82
2022/09/12 12:26:58;;;;;;;0.30;0.30;;;26.00;99.90;;;;;;5027641;27;20609;-83
2022/09/12 12:29:31;;;;;;;0.20;0.20;;;26.00;99.90;;;;;;5021162;27;20047;-83
2022/09/12 12:32:03;;;;;;;0.20;0.20;;;26.10;99.90;;;;;;5017532;27;20043;-81
2022/09/12 12:34:40;;;;;;;0.30;0.30;;;26.20;99.90;;;;;;5016376;27;20444;-83
2022/09/12 12:37:19;;;;;;;0.30;0.30;;;26.20;99.90;;;;;;5032280;27;20043;-82
2022/09/12 12:39:46;;;;;;;0.38;0.38;;;26.30;99.90;;;;;;5011366;27;20213;-82
2022/09/12 12:42:31;;;;;;;0.30;0.30;;;26.20;99.90;;;;;;5014260;27;20494;-82
2022/09/12 12:44:58;;;;;;;0.30;0.30;;;26.30;99.90;;;;;;5011234;27;20123;-86
2022/09/12 12:47:40;;;;;;;0.30;0.30;;;26.30;99.90;;;;;;5021124;27;20047;-83
2022/09/12 12:50:11;;;;;;;0.30;0.30;;;26.50;99.90;;;;;;5015663;27;20046;-81
2022/09/12 12:52:58;;;;;;;0.30;0.30;;;26.60;99.90;;;;;;5020270;27;20039;-82
2022/09/12 12:55:30;;;;;;;0.30;0.30;;;26.60;99.90;;;;;;5025724;27;20354;-82
2022/09/12 12:57:57;;;;;;;0.20;0.20;;;26.60;99.90;;;;;;5039206;27;20116;-83
2022/09/12 13:00:23;;;;;;;0.30;0.30;;;26.70;99.90;;;;;;5018088;27;20853;-81
2022/09/12 13:03:51;;;;;;;0.30;0.30;;;26.60;99.90;;;;;;4993502;27;20051;-84
2022/09/12 13:06:41;;;;;;;0.30;0.30;;;26.60;99.90;;;;;;5017520;27;20108;-82
2022/09/12 13:09:33;;;;;;;0.30;0.30;;;26.60;99.90;;;;;;5007231;27;20105;-82
2022/09/12 13:12:22;;;;;;;0.30;0.30;;;26.60;99.90;;;;;;5041002;27;20058;-79
2022/09/12 13:14:58;;;;;;;0.30;0.30;;;26.60;99.90;;;;;;5037096;27;20039;-82
2022/09/12 13:17:32;;;;;;;0.30;0.30;;;26.50;99.90;;;;;;5017279;27;20043;-82
2022/09/12 13:20:25;;;;;;;0.20;0.20;;;26.30;99.90;;;;;;5034535;27;20051;-78